sensor_id;sensor_type;location;lat;lon;timestamp;P1;durP1;ratioP1;P2;durP2;ratioP2
32874;SDS011;40468;42.128;24.750;2022-11-27T00:00:53;17.92;;;8.43;;
32874;SDS011;40468;42.128;24.750;2022-11-27T00:02:25;20.80;;;9.48;;
32874;SDS011;40468;42.128;24.750;2022-11-27T00:03:57;16.73;;;8.77;;
32874;SDS011;40468;42.128;24.750;2022-11-27T00:05:28;20.98;;;8.82;;
32874;SDS011;40468;42.128;24.750;2022-11-27T00:07:00;25.73;;;10.52;;
32874;SDS011;40468;42.128;24.750;2022-11-27T00:08:32;25.13;;;11.82;;
32874;SDS011;40468;42.128;24.750;2022-11-27T00:10:05;24.38;;;11.43;;
32874;SDS011;40468;42.128;24.750;2022-11-27T00:11:38;21.63;;;10.60;;
32874;SDS011;40468;42.128;24.750;2022-11-27T00:13:10;23.33;;;11.70;;
32874;SDS011;40468;42.128;24.750;2022-11-27T00:14:42;25.33;;;12.07;;
32874;SDS011;40468;42.128;24.750;2022-11-27T00:16:15;24.77;;;10.80;;
32874;SDS011;40468;42.128;24.750;2022-11-27T00:17:47;29.58;;;12.15;;
32874;SDS011;40468;42.128;24.750;2022-11-27T00:19:19;26.13;;;11.63;;
32874;SDS011;40468;42.128;24.750;2022-11-27T00:20:51;28.85;;;12.18;;
32874;SDS011;40468;42.128;24.750;2022-11-27T00:22:23;22.02;;;11.85;;
32874;SDS011;40468;42.128;24.750;2022-11-27T00:23:57;24.92;;;12.70;;
32874;SDS011;40468;42.128;24.750;2022-11-27T00:25:30;27.38;;;11.32;;
32874;SDS011;40468;42.128;24.750;2022-11-27T00:27:02;27.73;;;11.63;;
32874;SDS011;40468;42.128;24.750;2022-11-27T00:28:34;27.00;;;12.48;;
32874;SDS011;40468;42.128;24.750;2022-11-27T00:30:07;28.00;;;12.20;;
32874;SDS011;40468;42.128;24.750;2022-11-27T00:31:41;25.45;;;11.80;;
32874;SDS011;40468;42.128;24.750;2022-11-27T00:33:13;20.70;;;10.80;;
32874;SDS011;40468;42.128;24.750;2022-11-27T00:34:45;32.08;;;12.15;;
32874;SDS011;40468;42.128;24.750;2022-11-27T00:36:16;27.65;;;11.55;;
32874;SDS011;40468;42.128;24.750;2022-11-27T00:37:47;20.75;;;11.00;;
32874;SDS011;40468;42.128;24.750;2022-11-27T00:39:19;23.23;;;11.52;;
32874;SDS011;40468;42.128;24.750;2022-11-27T00:40:51;24.83;;;11.60;;
32874;SDS011;40468;42.128;24.750;2022-11-27T00:42:23;27.52;;;11.50;;
32874;SDS011;40468;42.128;24.750;2022-11-27T00:43:55;23.05;;;10.70;;
32874;SDS011;40468;42.128;24.750;2022-11-27T00:45:27;26.58;;;11.93;;
32874;SDS011;40468;42.128;24.750;2022-11-27T00:47:00;26.33;;;12.32;;
32874;SDS011;40468;42.128;24.750;2022-11-27T00:48:32;27.52;;;12.32;;
32874;SDS011;40468;42.128;24.750;2022-11-27T00:50:05;25.15;;;12.82;;
32874;SDS011;40468;42.128;24.750;2022-11-27T00:51:37;28.13;;;12.68;;
32874;SDS011;40468;42.128;24.750;2022-11-27T00:53:09;23.00;;;12.40;;
32874;SDS011;40468;42.128;24.750;2022-11-27T00:54:41;25.92;;;12.38;;
32874;SDS011;40468;42.128;24.750;2022-11-27T00:56:14;28.70;;;11.95;;
32874;SDS011;40468;42.128;24.750;2022-11-27T00:57:47;22.15;;;11.57;;
32874;SDS011;40468;42.128;24.750;2022-11-27T00:59:19;27.75;;;12.50;;
32874;SDS011;40468;42.128;24.750;2022-11-27T01:00:53;26.55;;;11.75;;
32874;SDS011;40468;42.128;24.750;2022-11-27T01:02:27;26.35;;;11.40;;
32874;SDS011;40468;42.128;24.750;2022-11-27T01:03:59;21.98;;;11.02;;
32874;SDS011;40468;42.128;24.750;2022-11-27T01:05:34;25.08;;;12.38;;
32874;SDS011;40468;42.128;24.750;2022-11-27T01:07:07;24.95;;;11.57;;
32874;SDS011;40468;42.128;24.750;2022-11-27T01:08:39;26.13;;;11.98;;
32874;SDS011;40468;42.128;24.750;2022-11-27T01:10:11;24.08;;;11.93;;
32874;SDS011;40468;42.128;24.750;2022-11-27T01:11:43;25.48;;;12.23;;
32874;SDS011;40468;42.128;24.750;2022-11-27T01:13:14;28.23;;;12.27;;
32874;SDS011;40468;42.128;24.750;2022-11-27T01:14:45;23.83;;;11.93;;
32874;SDS011;40468;42.128;24.750;2022-11-27T01:16:19;23.88;;;12.30;;
32874;SDS011;40468;42.128;24.750;2022-11-27T01:17:53;22.75;;;11.85;;
32874;SDS011;40468;42.128;24.750;2022-11-27T01:19:24;24.92;;;11.20;;
32874;SDS011;40468;42.128;24.750;2022-11-27T01:20:56;23.17;;;11.02;;
32874;SDS011;40468;42.128;24.750;2022-11-27T01:22:27;26.23;;;12.45;;
32874;SDS011;40468;42.128;24.750;2022-11-27T01:23:59;24.70;;;11.98;;
32874;SDS011;40468;42.128;24.750;2022-11-27T01:25:32;23.02;;;11.57;;
32874;SDS011;40468;42.128;24.750;2022-11-27T01:27:05;27.25;;;12.30;;
32874;SDS011;40468;42.128;24.750;2022-11-27T01:28:37;25.95;;;11.65;;
32874;SDS011;40468;42.128;24.750;2022-11-27T01:30:10;23.42;;;11.73;;
32874;SDS011;40468;42.128;24.750;2022-11-27T01:31:42;29.10;;;12.15;;
32874;SDS011;40468;42.128;24.750;2022-11-27T01:33:16;22.88;;;12.52;;
32874;SDS011;40468;42.128;24.750;2022-11-27T01:34:48;29.15;;;12.73;;
32874;SDS011;40468;42.128;24.750;2022-11-27T01:36:20;24.80;;;11.75;;
32874;SDS011;40468;42.128;24.750;2022-11-27T01:37:52;24.05;;;12.25;;
32874;SDS011;40468;42.128;24.750;2022-11-27T01:39:24;23.02;;;12.30;;
32874;SDS011;40468;42.128;24.750;2022-11-27T01:40:56;25.20;;;11.70;;
32874;SDS011;40468;42.128;24.750;2022-11-27T01:42:29;25.52;;;11.38;;
32874;SDS011;40468;42.128;24.750;2022-11-27T01:44:02;24.35;;;11.00;;
32874;SDS011;40468;42.128;24.750;2022-11-27T01:45:56;21.63;;;11.57;;
32874;SDS011;40468;42.128;24.750;2022-11-27T01:47:39;24.92;;;11.65;;
32874;SDS011;40468;42.128;24.750;2022-11-27T01:49:21;24.52;;;11.95;;
32874;SDS011;40468;42.128;24.750;2022-11-27T01:51:01;26.88;;;11.60;;
32874;SDS011;40468;42.128;24.750;2022-11-27T01:52:33;25.10;;;12.32;;
32874;SDS011;40468;42.128;24.750;2022-11-27T01:54:07;24.48;;;11.23;;
32874;SDS011;40468;42.128;24.750;2022-11-27T01:57:15;23.05;;;11.40;;
32874;SDS011;40468;42.128;24.750;2022-11-27T01:58:51;27.45;;;12.73;;
32874;SDS011;40468;42.128;24.750;2022-11-27T02:00:23;25.95;;;13.05;;
32874;SDS011;40468;42.128;24.750;2022-11-27T02:01:56;25.23;;;13.75;;
32874;SDS011;40468;42.128;24.750;2022-11-27T02:05:00;28.35;;;13.63;;
32874;SDS011;40468;42.128;24.750;2022-11-27T02:06:31;28.38;;;14.35;;
32874;SDS011;40468;42.128;24.750;2022-11-27T02:08:04;29.52;;;14.82;;
32874;SDS011;40468;42.128;24.750;2022-11-27T02:09:39;28.42;;;13.93;;
32874;SDS011;40468;42.128;24.750;2022-11-27T02:11:12;28.63;;;15.18;;
32874;SDS011;40468;42.128;24.750;2022-11-27T02:12:53;29.67;;;14.82;;
32874;SDS011;40468;42.128;24.750;2022-11-27T02:14:31;30.08;;;15.48;;
32874;SDS011;40468;42.128;24.750;2022-11-27T02:16:20;34.88;;;15.02;;
32874;SDS011;40468;42.128;24.750;2022-11-27T02:18:03;28.73;;;14.73;;
32874;SDS011;40468;42.128;24.750;2022-11-27T02:19:47;29.17;;;15.50;;
32874;SDS011;40468;42.128;24.750;2022-11-27T02:21:33;32.05;;;15.20;;
32874;SDS011;40468;42.128;24.750;2022-11-27T02:25:04;27.33;;;14.40;;
32874;SDS011;40468;42.128;24.750;2022-11-27T02:26:58;25.77;;;13.70;;
32874;SDS011;40468;42.128;24.750;2022-11-27T02:28:52;32.03;;;15.73;;
32874;SDS011;40468;42.128;24.750;2022-11-27T02:30:28;31.48;;;15.23;;
32874;SDS011;40468;42.128;24.750;2022-11-27T02:32:07;33.65;;;14.98;;
32874;SDS011;40468;42.128;24.750;2022-11-27T02:33:44;28.48;;;14.45;;
32874;SDS011;40468;42.128;24.750;2022-11-27T02:35:21;28.38;;;14.60;;
32874;SDS011;40468;42.128;24.750;2022-11-27T02:36:58;29.10;;;14.65;;
32874;SDS011;40468;42.128;24.750;2022-11-27T02:38:36;30.20;;;15.40;;
32874;SDS011;40468;42.128;24.750;2022-11-27T02:40:11;27.77;;;13.85;;
32874;SDS011;40468;42.128;24.750;2022-11-27T02:41:48;27.70;;;14.15;;
32874;SDS011;40468;42.128;24.750;2022-11-27T02:43:24;29.38;;;15.20;;
32874;SDS011;40468;42.128;24.750;2022-11-27T02:45:03;33.92;;;14.32;;
32874;SDS011;40468;42.128;24.750;2022-11-27T02:46:38;28.70;;;13.88;;
32874;SDS011;40468;42.128;24.750;2022-11-27T02:48:12;36.17;;;14.63;;
32874;SDS011;40468;42.128;24.750;2022-11-27T02:49:47;32.05;;;14.77;;
32874;SDS011;40468;42.128;24.750;2022-11-27T02:51:21;30.13;;;15.07;;
32874;SDS011;40468;42.128;24.750;2022-11-27T02:52:57;31.02;;;14.63;;
32874;SDS011;40468;42.128;24.750;2022-11-27T02:54:31;27.70;;;13.57;;
32874;SDS011;40468;42.128;24.750;2022-11-27T02:56:05;26.02;;;13.45;;
32874;SDS011;40468;42.128;24.750;2022-11-27T02:57:43;27.90;;;14.02;;
32874;SDS011;40468;42.128;24.750;2022-11-27T02:59:16;27.25;;;13.77;;
32874;SDS011;40468;42.128;24.750;2022-11-27T03:00:51;27.55;;;13.98;;
32874;SDS011;40468;42.128;24.750;2022-11-27T03:02:26;27.40;;;14.00;;
32874;SDS011;40468;42.128;24.750;2022-11-27T03:04:01;30.05;;;14.35;;
32874;SDS011;40468;42.128;24.750;2022-11-27T03:05:39;30.75;;;13.93;;
32874;SDS011;40468;42.128;24.750;2022-11-27T03:07:13;27.05;;;14.00;;
32874;SDS011;40468;42.128;24.750;2022-11-27T03:08:53;30.38;;;14.70;;
32874;SDS011;40468;42.128;24.750;2022-11-27T03:10:30;27.48;;;13.35;;
32874;SDS011;40468;42.128;24.750;2022-11-27T03:12:08;27.63;;;13.55;;
32874;SDS011;40468;42.128;24.750;2022-11-27T03:13:42;29.75;;;13.35;;
32874;SDS011;40468;42.128;24.750;2022-11-27T03:15:17;27.95;;;13.57;;
32874;SDS011;40468;42.128;24.750;2022-11-27T03:16:55;29.65;;;12.73;;
32874;SDS011;40468;42.128;24.750;2022-11-27T03:18:34;26.95;;;13.25;;
32874;SDS011;40468;42.128;24.750;2022-11-27T03:20:11;23.10;;;13.00;;
32874;SDS011;40468;42.128;24.750;2022-11-27T03:21:47;26.98;;;13.27;;
32874;SDS011;40468;42.128;24.750;2022-11-27T03:23:23;26.02;;;12.32;;
32874;SDS011;40468;42.128;24.750;2022-11-27T03:24:55;22.20;;;12.02;;
32874;SDS011;40468;42.128;24.750;2022-11-27T03:26:27;25.45;;;11.43;;
32874;SDS011;40468;42.128;24.750;2022-11-27T03:28:00;23.05;;;11.73;;
32874;SDS011;40468;42.128;24.750;2022-11-27T03:29:36;23.45;;;12.25;;
32874;SDS011;40468;42.128;24.750;2022-11-27T03:31:11;23.55;;;12.70;;
32874;SDS011;40468;42.128;24.750;2022-11-27T03:32:45;24.53;;;12.43;;
32874;SDS011;40468;42.128;24.750;2022-11-27T03:34:17;19.23;;;10.80;;
32874;SDS011;40468;42.128;24.750;2022-11-27T03:35:51;27.45;;;12.90;;
32874;SDS011;40468;42.128;24.750;2022-11-27T03:38:55;29.42;;;13.35;;
32874;SDS011;40468;42.128;24.750;2022-11-27T03:40:28;23.17;;;12.55;;
32874;SDS011;40468;42.128;24.750;2022-11-27T03:42:10;29.23;;;13.73;;
32874;SDS011;40468;42.128;24.750;2022-11-27T03:43:54;26.92;;;12.75;;
32874;SDS011;40468;42.128;24.750;2022-11-27T03:45:30;25.88;;;12.45;;
32874;SDS011;40468;42.128;24.750;2022-11-27T03:47:09;26.38;;;12.20;;
32874;SDS011;40468;42.128;24.750;2022-11-27T03:48:52;22.33;;;11.77;;
32874;SDS011;40468;42.128;24.750;2022-11-27T03:50:31;20.80;;;11.60;;
32874;SDS011;40468;42.128;24.750;2022-11-27T03:52:13;21.30;;;11.27;;
32874;SDS011;40468;42.128;24.750;2022-11-27T03:53:56;25.77;;;11.55;;
32874;SDS011;40468;42.128;24.750;2022-11-27T03:55:36;23.17;;;11.02;;
32874;SDS011;40468;42.128;24.750;2022-11-27T03:57:19;18.60;;;10.50;;
32874;SDS011;40468;42.128;24.750;2022-11-27T03:58:57;24.38;;;11.38;;
32874;SDS011;40468;42.128;24.750;2022-11-27T04:00:33;22.48;;;11.60;;
32874;SDS011;40468;42.128;24.750;2022-11-27T04:02:10;23.85;;;11.20;;
32874;SDS011;40468;42.128;24.750;2022-11-27T04:03:43;21.58;;;10.65;;
32874;SDS011;40468;42.128;24.750;2022-11-27T04:05:17;23.30;;;11.57;;
32874;SDS011;40468;42.128;24.750;2022-11-27T04:06:48;21.50;;;10.73;;
32874;SDS011;40468;42.128;24.750;2022-11-27T04:08:21;28.77;;;11.50;;
32874;SDS011;40468;42.128;24.750;2022-11-27T04:09:53;21.70;;;11.10;;
32874;SDS011;40468;42.128;24.750;2022-11-27T04:11:24;22.80;;;10.93;;
32874;SDS011;40468;42.128;24.750;2022-11-27T04:12:56;23.15;;;11.48;;
32874;SDS011;40468;42.128;24.750;2022-11-27T04:14:28;22.83;;;11.65;;
32874;SDS011;40468;42.128;24.750;2022-11-27T04:16:00;20.33;;;10.68;;
32874;SDS011;40468;42.128;24.750;2022-11-27T04:17:33;23.42;;;12.23;;
32874;SDS011;40468;42.128;24.750;2022-11-27T04:19:05;23.15;;;10.90;;
32874;SDS011;40468;42.128;24.750;2022-11-27T04:20:39;21.63;;;10.90;;
32874;SDS011;40468;42.128;24.750;2022-11-27T04:22:11;24.40;;;11.10;;
32874;SDS011;40468;42.128;24.750;2022-11-27T04:23:44;27.48;;;12.43;;
32874;SDS011;40468;42.128;24.750;2022-11-27T04:25:16;25.27;;;11.40;;
32874;SDS011;40468;42.128;24.750;2022-11-27T04:26:48;23.10;;;11.02;;
32874;SDS011;40468;42.128;24.750;2022-11-27T04:28:20;23.38;;;11.75;;
32874;SDS011;40468;42.128;24.750;2022-11-27T04:29:52;20.90;;;11.07;;
32874;SDS011;40468;42.128;24.750;2022-11-27T04:31:24;20.40;;;10.27;;
32874;SDS011;40468;42.128;24.750;2022-11-27T04:32:55;24.23;;;11.13;;
32874;SDS011;40468;42.128;24.750;2022-11-27T04:34:27;23.52;;;11.18;;
32874;SDS011;40468;42.128;24.750;2022-11-27T04:35:59;22.88;;;10.02;;
32874;SDS011;40468;42.128;24.750;2022-11-27T04:37:31;22.25;;;11.07;;
32874;SDS011;40468;42.128;24.750;2022-11-27T04:39:03;22.92;;;10.88;;
32874;SDS011;40468;42.128;24.750;2022-11-27T04:40:35;23.15;;;12.60;;
32874;SDS011;40468;42.128;24.750;2022-11-27T04:42:07;25.58;;;11.65;;
32874;SDS011;40468;42.128;24.750;2022-11-27T04:43:37;26.35;;;11.63;;
32874;SDS011;40468;42.128;24.750;2022-11-27T04:45:10;23.58;;;11.60;;
32874;SDS011;40468;42.128;24.750;2022-11-27T04:46:42;25.40;;;12.05;;
32874;SDS011;40468;42.128;24.750;2022-11-27T04:48:14;27.17;;;11.82;;
32874;SDS011;40468;42.128;24.750;2022-11-27T04:49:46;26.73;;;11.57;;
32874;SDS011;40468;42.128;24.750;2022-11-27T04:51:19;26.80;;;11.75;;
32874;SDS011;40468;42.128;24.750;2022-11-27T04:54:23;24.63;;;11.73;;
32874;SDS011;40468;42.128;24.750;2022-11-27T04:55:55;22.92;;;11.35;;
32874;SDS011;40468;42.128;24.750;2022-11-27T04:57:27;25.13;;;12.00;;
32874;SDS011;40468;42.128;24.750;2022-11-27T04:58:59;27.30;;;12.48;;
32874;SDS011;40468;42.128;24.750;2022-11-27T05:00:31;21.63;;;11.90;;
32874;SDS011;40468;42.128;24.750;2022-11-27T05:02:02;25.17;;;12.70;;
32874;SDS011;40468;42.128;24.750;2022-11-27T05:03:34;27.70;;;12.63;;
32874;SDS011;40468;42.128;24.750;2022-11-27T05:05:07;23.98;;;12.82;;
32874;SDS011;40468;42.128;24.750;2022-11-27T05:06:40;26.33;;;12.13;;
32874;SDS011;40468;42.128;24.750;2022-11-27T05:09:44;22.65;;;12.10;;
32874;SDS011;40468;42.128;24.750;2022-11-27T05:11:15;32.88;;;13.88;;
32874;SDS011;40468;42.128;24.750;2022-11-27T05:12:48;28.00;;;13.25;;
32874;SDS011;40468;42.128;24.750;2022-11-27T05:14:20;27.83;;;14.20;;
32874;SDS011;40468;42.128;24.750;2022-11-27T05:15:56;31.55;;;13.60;;
32874;SDS011;40468;42.128;24.750;2022-11-27T05:17:28;28.45;;;13.23;;
32874;SDS011;40468;42.128;24.750;2022-11-27T05:19:00;25.88;;;12.85;;
32874;SDS011;40468;42.128;24.750;2022-11-27T05:20:32;27.90;;;13.40;;
32874;SDS011;40468;42.128;24.750;2022-11-27T05:22:05;23.45;;;11.98;;
32874;SDS011;40468;42.128;24.750;2022-11-27T05:23:37;29.52;;;14.05;;
32874;SDS011;40468;42.128;24.750;2022-11-27T05:25:09;29.90;;;13.95;;
32874;SDS011;40468;42.128;24.750;2022-11-27T05:26:41;24.73;;;12.35;;
32874;SDS011;40468;42.128;24.750;2022-11-27T05:28:14;24.55;;;12.82;;
32874;SDS011;40468;42.128;24.750;2022-11-27T05:29:46;29.08;;;13.70;;
32874;SDS011;40468;42.128;24.750;2022-11-27T05:31:18;27.92;;;14.23;;
32874;SDS011;40468;42.128;24.750;2022-11-27T05:32:49;27.58;;;13.07;;
32874;SDS011;40468;42.128;24.750;2022-11-27T05:34:21;30.15;;;14.60;;
32874;SDS011;40468;42.128;24.750;2022-11-27T05:35:53;27.48;;;13.35;;
32874;SDS011;40468;42.128;24.750;2022-11-27T05:37:26;28.30;;;13.50;;
32874;SDS011;40468;42.128;24.750;2022-11-27T05:38:59;27.90;;;13.20;;
32874;SDS011;40468;42.128;24.750;2022-11-27T05:40:30;26.77;;;12.45;;
32874;SDS011;40468;42.128;24.750;2022-11-27T05:42:02;27.67;;;13.05;;
32874;SDS011;40468;42.128;24.750;2022-11-27T05:43:35;26.75;;;13.48;;
32874;SDS011;40468;42.128;24.750;2022-11-27T05:45:07;26.13;;;13.48;;
32874;SDS011;40468;42.128;24.750;2022-11-27T05:46:39;28.25;;;13.55;;
32874;SDS011;40468;42.128;24.750;2022-11-27T05:48:13;31.20;;;14.35;;
32874;SDS011;40468;42.128;24.750;2022-11-27T05:49:44;25.65;;;13.63;;
32874;SDS011;40468;42.128;24.750;2022-11-27T05:51:16;26.00;;;13.70;;
32874;SDS011;40468;42.128;24.750;2022-11-27T05:52:50;29.20;;;13.43;;
32874;SDS011;40468;42.128;24.750;2022-11-27T05:55:53;25.25;;;12.80;;
32874;SDS011;40468;42.128;24.750;2022-11-27T05:57:24;23.95;;;12.88;;
32874;SDS011;40468;42.128;24.750;2022-11-27T05:58:57;31.52;;;13.30;;
32874;SDS011;40468;42.128;24.750;2022-11-27T06:00:28;26.17;;;12.85;;
32874;SDS011;40468;42.128;24.750;2022-11-27T06:02:00;29.00;;;12.98;;
32874;SDS011;40468;42.128;24.750;2022-11-27T06:03:32;28.55;;;12.75;;
32874;SDS011;40468;42.128;24.750;2022-11-27T06:05:04;28.15;;;14.20;;
32874;SDS011;40468;42.128;24.750;2022-11-27T06:06:37;29.35;;;15.00;;
32874;SDS011;40468;42.128;24.750;2022-11-27T06:08:10;27.23;;;13.35;;
32874;SDS011;40468;42.128;24.750;2022-11-27T06:09:42;31.20;;;13.63;;
32874;SDS011;40468;42.128;24.750;2022-11-27T06:11:15;29.25;;;14.23;;
32874;SDS011;40468;42.128;24.750;2022-11-27T06:12:49;29.75;;;13.73;;
32874;SDS011;40468;42.128;24.750;2022-11-27T06:14:21;28.40;;;14.68;;
32874;SDS011;40468;42.128;24.750;2022-11-27T06:15:53;28.92;;;14.10;;
32874;SDS011;40468;42.128;24.750;2022-11-27T06:17:23;27.63;;;13.18;;
32874;SDS011;40468;42.128;24.750;2022-11-27T06:18:55;28.08;;;13.73;;
32874;SDS011;40468;42.128;24.750;2022-11-27T06:20:28;28.48;;;13.60;;
32874;SDS011;40468;42.128;24.750;2022-11-27T06:21:59;28.80;;;13.45;;
32874;SDS011;40468;42.128;24.750;2022-11-27T06:23:33;27.75;;;13.82;;
32874;SDS011;40468;42.128;24.750;2022-11-27T06:25:05;24.02;;;13.40;;
32874;SDS011;40468;42.128;24.750;2022-11-27T06:26:37;29.45;;;13.60;;
32874;SDS011;40468;42.128;24.750;2022-11-27T06:28:09;32.35;;;13.98;;
32874;SDS011;40468;42.128;24.750;2022-11-27T06:29:41;29.58;;;14.25;;
32874;SDS011;40468;42.128;24.750;2022-11-27T06:31:13;36.28;;;15.65;;
32874;SDS011;40468;42.128;24.750;2022-11-27T06:32:47;32.80;;;13.63;;
32874;SDS011;40468;42.128;24.750;2022-11-27T06:34:18;31.80;;;14.85;;
32874;SDS011;40468;42.128;24.750;2022-11-27T06:35:50;30.13;;;14.43;;
32874;SDS011;40468;42.128;24.750;2022-11-27T06:37:24;33.42;;;14.45;;
32874;SDS011;40468;42.128;24.750;2022-11-27T06:38:57;29.50;;;13.82;;
32874;SDS011;40468;42.128;24.750;2022-11-27T06:40:29;30.92;;;13.90;;
32874;SDS011;40468;42.128;24.750;2022-11-27T06:42:01;24.90;;;12.45;;
32874;SDS011;40468;42.128;24.750;2022-11-27T06:43:33;28.02;;;13.40;;
32874;SDS011;40468;42.128;24.750;2022-11-27T06:45:06;26.17;;;13.82;;
32874;SDS011;40468;42.128;24.750;2022-11-27T06:46:38;28.05;;;13.32;;
32874;SDS011;40468;42.128;24.750;2022-11-27T06:48:10;27.23;;;12.65;;
32874;SDS011;40468;42.128;24.750;2022-11-27T06:49:42;28.88;;;13.85;;
32874;SDS011;40468;42.128;24.750;2022-11-27T06:51:14;26.90;;;13.63;;
32874;SDS011;40468;42.128;24.750;2022-11-27T06:52:47;27.60;;;13.27;;
32874;SDS011;40468;42.128;24.750;2022-11-27T06:54:21;29.38;;;13.18;;
32874;SDS011;40468;42.128;24.750;2022-11-27T06:55:53;30.98;;;12.93;;
32874;SDS011;40468;42.128;24.750;2022-11-27T06:57:24;25.85;;;12.55;;
32874;SDS011;40468;42.128;24.750;2022-11-27T06:58:57;24.08;;;12.10;;
32874;SDS011;40468;42.128;24.750;2022-11-27T07:00:30;31.08;;;12.35;;
32874;SDS011;40468;42.128;24.750;2022-11-27T07:02:02;26.83;;;13.20;;
32874;SDS011;40468;42.128;24.750;2022-11-27T07:03:34;25.60;;;12.57;;
32874;SDS011;40468;42.128;24.750;2022-11-27T07:05:06;22.10;;;10.95;;
32874;SDS011;40468;42.128;24.750;2022-11-27T07:06:39;28.67;;;12.25;;
32874;SDS011;40468;42.128;24.750;2022-11-27T07:08:11;26.77;;;11.80;;
32874;SDS011;40468;42.128;24.750;2022-11-27T07:09:44;25.17;;;11.45;;
32874;SDS011;40468;42.128;24.750;2022-11-27T07:12:49;24.50;;;11.15;;
32874;SDS011;40468;42.128;24.750;2022-11-27T07:14:21;27.40;;;10.73;;
32874;SDS011;40468;42.128;24.750;2022-11-27T07:15:53;22.10;;;11.20;;
32874;SDS011;40468;42.128;24.750;2022-11-27T07:17:25;22.20;;;11.25;;
32874;SDS011;40468;42.128;24.750;2022-11-27T07:18:58;23.05;;;11.15;;
32874;SDS011;40468;42.128;24.750;2022-11-27T07:20:31;25.42;;;11.90;;
32874;SDS011;40468;42.128;24.750;2022-11-27T07:22:03;23.58;;;11.95;;
32874;SDS011;40468;42.128;24.750;2022-11-27T07:23:35;22.73;;;11.10;;
32874;SDS011;40468;42.128;24.750;2022-11-27T07:25:08;21.17;;;11.63;;
32874;SDS011;40468;42.128;24.750;2022-11-27T07:26:40;25.67;;;12.40;;
32874;SDS011;40468;42.128;24.750;2022-11-27T07:28:12;22.92;;;11.95;;
32874;SDS011;40468;42.128;24.750;2022-11-27T07:29:44;25.52;;;13.38;;
32874;SDS011;40468;42.128;24.750;2022-11-27T07:31:16;25.95;;;13.48;;
32874;SDS011;40468;42.128;24.750;2022-11-27T07:32:50;26.75;;;13.25;;
32874;SDS011;40468;42.128;24.750;2022-11-27T07:34:22;27.67;;;12.75;;
32874;SDS011;40468;42.128;24.750;2022-11-27T07:35:56;22.02;;;11.35;;
32874;SDS011;40468;42.128;24.750;2022-11-27T07:37:29;28.23;;;12.10;;
32874;SDS011;40468;42.128;24.750;2022-11-27T07:39:01;31.35;;;11.63;;
32874;SDS011;40468;42.128;24.750;2022-11-27T07:40:36;27.25;;;12.48;;
32874;SDS011;40468;42.128;24.750;2022-11-27T07:42:08;26.02;;;12.10;;
32874;SDS011;40468;42.128;24.750;2022-11-27T07:43:40;30.30;;;12.05;;
32874;SDS011;40468;42.128;24.750;2022-11-27T08:59:19;31.15;;;14.80;;
32874;SDS011;40468;42.128;24.750;2022-11-27T09:00:50;30.25;;;13.55;;
32874;SDS011;40468;42.128;24.750;2022-11-27T09:02:22;29.65;;;13.15;;
32874;SDS011;40468;42.128;24.750;2022-11-27T09:03:54;28.27;;;13.15;;
32874;SDS011;40468;42.128;24.750;2022-11-27T09:05:26;23.70;;;11.63;;
32874;SDS011;40468;42.128;24.750;2022-11-27T09:06:59;30.92;;;12.45;;
32874;SDS011;40468;42.128;24.750;2022-11-27T09:08:31;26.17;;;11.95;;
32874;SDS011;40468;42.128;24.750;2022-11-27T09:10:02;28.50;;;12.60;;
32874;SDS011;40468;42.128;24.750;2022-11-27T09:11:35;28.23;;;12.95;;
32874;SDS011;40468;42.128;24.750;2022-11-27T09:13:07;23.98;;;12.65;;
32874;SDS011;40468;42.128;24.750;2022-11-27T09:14:40;25.20;;;11.70;;
32874;SDS011;40468;42.128;24.750;2022-11-27T09:16:13;20.98;;;12.25;;
32874;SDS011;40468;42.128;24.750;2022-11-27T09:17:46;22.23;;;11.20;;
32874;SDS011;40468;42.128;24.750;2022-11-27T09:19:18;27.27;;;10.77;;
32874;SDS011;40468;42.128;24.750;2022-11-27T09:20:54;23.40;;;11.45;;
32874;SDS011;40468;42.128;24.750;2022-11-27T09:22:26;21.75;;;11.05;;
32874;SDS011;40468;42.128;24.750;2022-11-27T09:23:59;25.60;;;12.88;;
32874;SDS011;40468;42.128;24.750;2022-11-27T09:25:32;23.52;;;11.40;;
32874;SDS011;40468;42.128;24.750;2022-11-27T09:27:03;20.20;;;11.23;;
32874;SDS011;40468;42.128;24.750;2022-11-27T09:28:36;26.60;;;11.77;;
32874;SDS011;40468;42.128;24.750;2022-11-27T09:30:10;23.40;;;12.32;;
32874;SDS011;40468;42.128;24.750;2022-11-27T09:31:43;22.42;;;11.30;;
32874;SDS011;40468;42.128;24.750;2022-11-27T09:33:14;27.42;;;12.27;;
32874;SDS011;40468;42.128;24.750;2022-11-27T09:34:46;24.70;;;12.32;;
32874;SDS011;40468;42.128;24.750;2022-11-27T09:36:19;22.05;;;10.73;;
32874;SDS011;40468;42.128;24.750;2022-11-27T09:37:52;24.65;;;12.77;;
32874;SDS011;40468;42.128;24.750;2022-11-27T09:39:24;27.35;;;11.88;;
32874;SDS011;40468;42.128;24.750;2022-11-27T09:41:01;26.13;;;12.13;;
32874;SDS011;40468;42.128;24.750;2022-11-27T09:42:39;21.88;;;11.48;;
32874;SDS011;40468;42.128;24.750;2022-11-27T09:46:11;24.85;;;11.43;;
32874;SDS011;40468;42.128;24.750;2022-11-27T09:47:51;25.27;;;11.93;;
32874;SDS011;40468;42.128;24.750;2022-11-27T09:49:28;24.25;;;11.77;;
32874;SDS011;40468;42.128;24.750;2022-11-27T09:51:08;24.90;;;12.05;;
32874;SDS011;40468;42.128;24.750;2022-11-27T09:52:46;25.65;;;12.85;;
32874;SDS011;40468;42.128;24.750;2022-11-27T09:54:22;22.60;;;12.25;;
32874;SDS011;40468;42.128;24.750;2022-11-27T09:55:57;24.33;;;12.70;;
32874;SDS011;40468;42.128;24.750;2022-11-27T09:57:34;33.03;;;13.13;;
32874;SDS011;40468;42.128;24.750;2022-11-27T09:59:10;24.88;;;12.95;;
32874;SDS011;40468;42.128;24.750;2022-11-27T10:00:46;23.80;;;12.80;;
32874;SDS011;40468;42.128;24.750;2022-11-27T10:02:20;27.00;;;12.52;;
32874;SDS011;40468;42.128;24.750;2022-11-27T10:03:59;25.10;;;12.75;;
32874;SDS011;40468;42.128;24.750;2022-11-27T10:05:32;26.83;;;13.68;;
32874;SDS011;40468;42.128;24.750;2022-11-27T10:07:14;20.80;;;11.35;;
32874;SDS011;40468;42.128;24.750;2022-11-27T10:08:59;19.42;;;11.55;;
32874;SDS011;40468;42.128;24.750;2022-11-27T10:10:43;27.50;;;12.27;;
32874;SDS011;40468;42.128;24.750;2022-11-27T10:12:24;23.70;;;11.88;;
32874;SDS011;40468;42.128;24.750;2022-11-27T10:14:09;26.25;;;10.57;;
32874;SDS011;40468;42.128;24.750;2022-11-27T10:15:58;22.38;;;11.05;;
32874;SDS011;40468;42.128;24.750;2022-11-27T10:17:38;21.48;;;10.60;;
32874;SDS011;40468;42.128;24.750;2022-11-27T10:19:17;22.60;;;11.50;;
32874;SDS011;40468;42.128;24.750;2022-11-27T10:20:58;22.30;;;11.07;;
32874;SDS011;40468;42.128;24.750;2022-11-27T10:22:38;21.83;;;10.90;;
32874;SDS011;40468;42.128;24.750;2022-11-27T10:24:18;20.60;;;11.05;;
32874;SDS011;40468;42.128;24.750;2022-11-27T10:25:57;20.83;;;11.00;;
32874;SDS011;40468;42.128;24.750;2022-11-27T10:27:35;21.45;;;11.40;;
32874;SDS011;40468;42.128;24.750;2022-11-27T10:29:13;18.60;;;10.35;;
32874;SDS011;40468;42.128;24.750;2022-11-27T10:30:57;25.33;;;11.70;;